*** The Vicarage Weather Feed ***

Nearby METAR Reports


 

CYOO - Oshawa, Municipal Airport, Ontario, Canada
Distance from station: NW 3.2km
Updated: 02/08/2021 06:00
Clear
Clear
 Wind from N
Wind: N 13 km/h
Temperature: 14°C
Dew Point: 12°C
Humidity: 88%
Barometer: 1015.9 hPa
Clouds: Clear
Visibility: 14 km
2021/08/02 10:00 CYOO 021000Z AUTO 35007KT 9SM CLR 14/12 A3000 RMK SLP163
CYKZ - Toronto, Buttonville, Municipal Airport, Ontario, Canada
Distance from station: W 39.75km
Updated: 03/01/2019 04:00
NOT Current
Partly cloudy
Partly cloudy
 Wind from WSW
Wind: WSW 7 km/h
Temperature: -3°C
Wind Chill: -6°C
Dew Point: -5°C
Humidity: 86%
Barometer: 1010.8 hPa
Clouds: Partly cloudy
Visibility: 24 km
Cloud details: Partly cloudy 1219 m
2019/01/03 09:00 CYKZ 030900Z 25004KT 15SM SCT040 M03/M05 A2985 RMK SC3 LAST STFD OBS FAREWELL SLP118
 
CXTO - Toronto City, Buttonville, Ontario, Canada
Distance from station: WSW 49km
Updated: 02/08/2021 06:00

 
Temperature: 15°C
Dew Point: 12°C
Humidity: 82%
2021/08/02 10:00 CXTO 021000Z AUTO 15/12 RMK AO1 SLP165 T01510122 53013
CYTZ - Toronto City, Island Airport, Ontario, Canada
Distance from station: SW 51.7km
Updated: 02/08/2021 06:00
Clear
Clear
 Wind from NW
Wind: NW 19 km/h
Temperature: 15°C
Dew Point: 12°C
Humidity: 82%
Barometer: 1016.3 hPa
Clouds: Clear
Visibility: 14 km
2021/08/02 10:00 CYTZ 021000Z AUTO 32010KT 9SM CLR 15/12 A3001 RMK SLP162
 
CYPQ - Toronto, Peterborough Airport, Ontario, Canada
Distance from station: NE 54km
Updated: 02/08/2021 06:00
Clear
Clear
 Wind from varies
Wind: varies 0 km/h
Temperature: 10°C
Dew Point: 9°C
Humidity: 94%
Barometer: 1015.9 hPa
Clouds: Clear
Visibility: 14 km
2021/08/02 10:00 CYPQ 021000Z AUTO /////KT 9SM CLR 10/09 A3000 RMK WND MISG SLP163
CWNC - Cobourg, (mars), Ontario, Canada
Distance from station: E 57km
Updated: 02/08/2021 06:00

 Wind from N
Wind: N 7 km/h
Temperature: 14°C
Dew Point: 11°C
Humidity: 82%
2021/08/02 10:00 CWNC 021000Z AUTO 35004KT 14/11 RMK AO1 SLP155 T01380109 53016
 
CYYZ - Toronto, Lester Pearson Airport, Ontario, Canada
Distance from station: W 65.5km
Updated: 02/08/2021 06:00
Few Clouds
Few Clouds
 Wind from NNW
Wind: NNW 11 km/h
Temperature: 13°C
Dew Point: 11°C
Humidity: 88%
Barometer: 1016.6 hPa
Clouds: Few Clouds
Visibility: 24 km
Cloud details: Few Clouds 1219 m
Few Clouds 6096 m
2021/08/02 10:00 CYYZ 021000Z 33006KT 15SM FEW040 FEW200 13/11 A3002 RMK SC1CI1 SC TR CI TR SLP168
CWGL - Lagoon City, Ontario, Canada
Distance from station: NNW 74km
Updated: 02/08/2021 06:00

 Wind from N
Wind: N 9 km/h
Temperature: 12°C
Dew Point: 10°C
Humidity: 88%
2021/08/02 10:00 CWGL 021000Z AUTO 01005KT 12/10 RMK AO1 SLP154 T01220103 53015
 
CWWZ - Port Weller Airport, Ontario, Canada
Distance from station: SSW 77km
Updated: 02/08/2021 06:00

 Wind from WNW
Wind: WNW 13 km/h
Temperature: 18°C
Dew Point: 15°C
Humidity: 83%
2021/08/02 10:00 CWWZ 021000Z AUTO 30007KT 18/15 RMK AO1 SLP168 T01750152 53013
CYSN - St.Catharines Niagara Airport, Ontario, Canada
Distance from station: SSW 81km
Updated: 01/08/2021 21:00
NOT Current
Light rain, Showers, Mostly cloudy
Light rain, Showers, Mostly cloudy
 Wind from NNE
Wind: NNE 13 km/h
Temperature: 18°C
Dew Point: 15°C
Humidity: 83%
Barometer: 1012.9 hPa
Summary: Light rain, Showers
Clouds: Mostly cloudy
Visibility: 24 km
Cloud details: Partly cloudy 1067 m
Mostly cloudy 1524 m
Mostly cloudy 3048 m
2021/08/02 01:00 CYSN 020100Z 03007KT 15SM -SHRA SCT035 BKN050 BKN100 18/15 A2991 RMK SC3SC2AC2 CVCTV CLD EMBD CB LGTCG W-SW LAST STFD OBS/NEXT 021100 UTC SLP128 DENSITY ALT 800FT
This data is offered only as a general guide to local weather conditions. It should not be relied upon in lieu of officially disseminated weather information for determining possible risk to persons or property. This site, including all information contained therein, is made available as is without warranties of any kind, either express or implied. The Vicarage Weather Feed© includes links to other sites for user convenience only. The content of any linked third-party site is not controlled by The Vicarage Weather Feed©. Access to any third-party website through The Vicarage Weather Feed©, regardless of whether or not the third-party site is a linked site, is entirely at the users own risk. Externally sourced content or material is excluded from The Vicarage Weather Feed© copyright and is the copyright and property of the respective provider. Skywarn® and the Skywarn® logo are registered trademarks of the National Oceanic and Atmospheric Administration, used with permission.